createdAt,value
2022-09-18T00:01:18.182Z,13.80
2022-09-18T00:03:45.805Z,13.67
2022-09-18T00:06:16.779Z,13.79
2022-09-18T00:08:43.808Z,13.55
2022-09-18T00:11:12.804Z,13.45
2022-09-18T00:13:41.295Z,13.04
2022-09-18T00:16:10.264Z,13.20
2022-09-18T00:18:37.069Z,13.20
2022-09-18T00:21:09.333Z,12.93
2022-09-18T00:23:36.104Z,12.93
2022-09-18T00:26:03.907Z,12.70
2022-09-18T00:28:30.523Z,12.71
2022-09-18T00:31:23.855Z,12.61
2022-09-18T00:33:50.380Z,12.38
2022-09-18T00:36:17.881Z,12.57
2022-09-18T00:38:45.655Z,12.45
2022-09-18T00:41:16.731Z,12.57
2022-09-18T00:43:43.469Z,12.74
2022-09-18T00:46:26.376Z,12.86
2022-09-18T00:49:01.757Z,13.11
2022-09-18T00:51:30.999Z,13.31
2022-09-18T00:54:19.382Z,13.52
2022-09-18T00:56:48.606Z,13.43
2022-09-18T00:59:24.015Z,13.26
2022-09-18T01:01:50.656Z,13.31
2022-09-18T01:04:17.391Z,13.51
2022-09-18T01:06:56.893Z,13.46
2022-09-18T01:09:50.867Z,13.50
2022-09-18T01:12:40.880Z,13.62
2022-09-18T01:15:47.193Z,13.70
2022-09-18T01:18:31.447Z,13.43
2022-09-18T01:21:07.613Z,13.41
2022-09-18T01:23:49.184Z,13.45
2022-09-18T01:26:15.682Z,13.25
2022-09-18T01:28:59.143Z,13.28
2022-09-18T01:31:31.097Z,13.49
2022-09-18T01:34:13.836Z,13.56
2022-09-18T01:36:47.773Z,13.40
2022-09-18T01:39:26.941Z,13.42
2022-09-18T01:41:56.130Z,13.43
2022-09-18T01:44:30.215Z,13.39
2022-09-18T01:47:00.365Z,13.32
2022-09-18T01:49:39.144Z,13.62
2022-09-18T01:52:16.417Z,13.68
2022-09-18T01:54:48.554Z,13.78
2022-09-18T01:57:20.499Z,13.89
2022-09-18T02:00:04.306Z,14.08
2022-09-18T02:02:43.754Z,13.98
2022-09-18T02:05:18.256Z,13.95
2022-09-18T02:08:06.701Z,13.82
2022-09-18T02:10:39.702Z,13.84
2022-09-18T02:13:11.395Z,13.74
2022-09-18T02:15:41.505Z,13.54
2022-09-18T02:18:21.088Z,13.82
2022-09-18T02:20:48.339Z,13.54
2022-09-18T02:23:16.615Z,13.62
2022-09-18T02:25:53.706Z,13.71
2022-09-18T02:28:25.197Z,13.84
2022-09-18T02:30:51.766Z,13.57
2022-09-18T02:33:33.180Z,13.89
2022-09-18T02:36:30.893Z,13.77
2022-09-18T02:39:27.211Z,13.93
2022-09-18T02:42:22.030Z,13.39
2022-09-18T02:44:54.659Z,13.49
2022-09-18T02:47:49.019Z,13.71
2022-09-18T02:50:26.877Z,14.13
2022-09-18T02:53:27.989Z,14.28
2022-09-18T02:56:01.238Z,14.36
2022-09-18T02:58:46.674Z,14.41
2022-09-18T03:01:17.482Z,14.54
2022-09-18T03:03:44.047Z,14.53
2022-09-18T03:06:10.536Z,14.67
2022-09-18T03:08:37.201Z,14.74
2022-09-18T03:11:04.411Z,14.82
2022-09-18T03:13:30.958Z,14.87
2022-09-18T03:15:58.075Z,14.96
2022-09-18T03:18:24.634Z,14.95
2022-09-18T03:20:51.143Z,15.03
2022-09-18T03:23:17.695Z,15.02
2022-09-18T03:25:44.156Z,14.93
2022-09-18T03:28:10.651Z,14.97
2022-09-18T03:30:37.221Z,14.98
2022-09-18T03:33:03.784Z,14.90
2022-09-18T03:35:30.273Z,14.88
2022-09-18T03:37:56.740Z,14.78
2022-09-18T03:40:23.290Z,14.70
2022-09-18T03:42:49.809Z,14.73
2022-09-18T03:45:16.309Z,14.74
2022-09-18T03:47:42.773Z,14.67
2022-09-18T03:50:09.653Z,14.71
2022-09-18T03:52:36.186Z,14.65
2022-09-18T03:55:02.802Z,14.61
2022-09-18T03:57:29.268Z,14.56
2022-09-18T03:59:55.774Z,14.53
2022-09-18T04:02:22.264Z,14.46
2022-09-18T04:04:48.833Z,14.47
2022-09-18T04:07:15.403Z,14.41
2022-09-18T04:09:41.918Z,14.35
2022-09-18T04:12:08.403Z,14.32
2022-09-18T04:14:35.035Z,14.23
2022-09-18T04:17:01.520Z,14.27
2022-09-18T04:19:27.988Z,14.14
2022-09-18T04:21:54.484Z,14.16
2022-09-18T04:24:20.974Z,13.98
2022-09-18T04:26:47.540Z,14.02
2022-09-18T04:29:14.078Z,14.09
2022-09-18T04:31:40.616Z,14.07
2022-09-18T04:34:07.154Z,14.10
2022-09-18T04:36:33.646Z,14.04
2022-09-18T04:39:00.271Z,13.99
2022-09-18T04:41:26.790Z,13.93
2022-09-18T04:43:53.317Z,13.95
2022-09-18T04:46:19.910Z,13.96
2022-09-18T04:48:49.309Z,14.01
2022-09-18T04:51:16.491Z,14.07
2022-09-18T04:53:43.009Z,14.13
2022-09-18T04:56:09.561Z,14.11
2022-09-18T04:58:36.026Z,14.03
2022-09-18T05:01:02.763Z,14.10
2022-09-18T05:03:30.281Z,13.96
2022-09-18T05:05:56.865Z,13.89
2022-09-18T05:08:23.973Z,13.97
2022-09-18T05:10:50.588Z,13.89
2022-09-18T05:13:17.097Z,13.88
2022-09-18T05:15:43.626Z,13.92
2022-09-18T05:18:11.992Z,13.88
2022-09-18T05:20:38.867Z,13.87
2022-09-18T05:23:05.794Z,13.92
2022-09-18T05:25:32.549Z,13.83
2022-09-18T05:28:01.774Z,13.88
2022-09-18T05:30:29.727Z,13.88
2022-09-18T05:33:02.521Z,13.84
2022-09-18T05:35:32.020Z,13.83
2022-09-18T05:37:58.649Z,13.83
2022-09-18T05:40:28.180Z,13.87
2022-09-18T05:42:54.680Z,13.79
2022-09-18T05:45:22.054Z,13.85
2022-09-18T05:47:57.399Z,13.87
2022-09-18T05:50:25.424Z,13.85
2022-09-18T05:53:03.773Z,13.86
2022-09-18T05:55:32.252Z,13.85
2022-09-18T05:58:00.837Z,13.82
2022-09-18T06:00:30.055Z,13.91
2022-09-18T06:02:59.223Z,13.88
2022-09-18T06:05:28.120Z,13.92
2022-09-18T06:07:59.075Z,14.00
2022-09-18T06:10:26.906Z,13.98
2022-09-18T06:13:11.192Z,14.04
2022-09-18T06:15:37.800Z,14.08
2022-09-18T06:18:05.834Z,14.10
2022-09-18T06:20:32.348Z,14.18
2022-09-18T06:23:00.506Z,14.17
2022-09-18T06:25:28.387Z,14.22
2022-09-18T06:28:00.012Z,14.29
2022-09-18T06:30:32.218Z,14.33
2022-09-18T06:33:08.664Z,14.31
2022-09-18T06:35:36.651Z,14.49
2022-09-18T06:38:05.073Z,14.54
2022-09-18T06:40:33.044Z,14.61
2022-09-18T06:43:01.559Z,14.71
2022-09-18T06:45:29.630Z,14.79
2022-09-18T06:48:01.055Z,14.86
2022-09-18T06:50:27.660Z,15.00
2022-09-18T06:52:54.126Z,14.98
2022-09-18T06:55:20.575Z,15.06
2022-09-18T06:57:57.058Z,15.28
2022-09-18T07:00:24.981Z,15.45
2022-09-18T07:03:02.198Z,15.54
2022-09-18T07:05:32.629Z,15.65
2022-09-18T07:07:59.756Z,15.76
2022-09-18T07:10:26.454Z,15.78
2022-09-18T07:12:56.958Z,15.83
2022-09-18T07:15:23.416Z,15.93
2022-09-18T07:17:49.848Z,16.06
2022-09-18T07:20:16.450Z,16.09
2022-09-18T07:22:47.277Z,16.11
2022-09-18T07:25:14.099Z,16.27
2022-09-18T07:27:40.562Z,16.26
2022-09-18T07:30:07.425Z,16.10
2022-09-18T07:32:35.463Z,16.33
2022-09-18T07:35:01.987Z,16.44
2022-09-18T07:37:28.454Z,16.40
2022-09-18T07:39:54.942Z,16.46
2022-09-18T07:42:21.499Z,16.59
2022-09-18T07:44:47.944Z,16.75
2022-09-18T07:47:14.398Z,16.79
2022-09-18T07:49:40.958Z,16.83
2022-09-18T07:52:07.456Z,16.81
2022-09-18T07:54:34.866Z,17.16
2022-09-18T07:57:01.319Z,17.21
2022-09-18T07:59:27.770Z,17.29
2022-09-18T08:01:54.285Z,17.38
2022-09-18T08:04:21.696Z,17.51
2022-09-18T08:06:52.147Z,17.33
2022-09-18T08:09:18.865Z,17.46
2022-09-18T08:11:46.055Z,17.44
2022-09-18T08:14:12.667Z,17.17
2022-09-18T08:16:39.209Z,17.20
2022-09-18T08:19:05.754Z,17.48
2022-09-18T08:21:32.260Z,17.44
2022-09-18T08:23:58.741Z,17.63
2022-09-18T08:26:25.189Z,17.70
2022-09-18T08:28:51.732Z,17.81
2022-09-18T08:31:18.241Z,17.85
2022-09-18T08:33:45.554Z,17.83
2022-09-18T08:36:12.091Z,17.83
2022-09-18T08:38:38.539Z,17.39
2022-09-18T08:41:21.279Z,17.35
2022-09-18T08:44:05.820Z,17.42
2022-09-18T08:46:41.551Z,17.43
2022-09-18T08:49:23.310Z,17.67
2022-09-18T08:52:10.891Z,17.63
2022-09-18T08:54:44.955Z,17.50
2022-09-18T08:57:17.904Z,17.70
2022-09-18T08:59:55.254Z,17.67
2022-09-18T09:02:47.364Z,17.70
2022-09-18T09:05:21.329Z,17.67
2022-09-18T09:08:06.758Z,17.80
2022-09-18T09:10:51.832Z,17.60
2022-09-18T09:13:49.072Z,17.75
2022-09-18T09:16:28.388Z,18.02
2022-09-18T09:19:32.115Z,17.99
2022-09-18T09:22:40.236Z,18.07
2022-09-18T09:25:34.622Z,17.67
2022-09-18T09:28:18.149Z,17.70
2022-09-18T09:30:50.992Z,17.90
2022-09-18T09:33:37.758Z,18.14
2022-09-18T09:36:13.474Z,17.88
2022-09-18T09:39:05.924Z,18.24
2022-09-18T09:41:51.794Z,18.13
2022-09-18T09:44:25.097Z,17.91
2022-09-18T09:47:19.326Z,17.90
2022-09-18T09:50:10.575Z,17.95
2022-09-18T09:52:41.771Z,18.15
2022-09-18T09:55:19.533Z,18.03
2022-09-18T09:58:01.278Z,18.03
2022-09-18T10:00:38.109Z,18.07
2022-09-18T10:03:24.781Z,18.07
2022-09-18T10:06:11.406Z,18.14
2022-09-18T10:08:44.135Z,18.32
2022-09-18T10:11:14.043Z,18.50
2022-09-18T10:13:52.558Z,18.40
2022-09-18T10:16:27.497Z,18.36
2022-09-18T10:18:54.111Z,18.42
2022-09-18T10:21:42.428Z,18.42
2022-09-18T10:24:19.225Z,18.18
2022-09-18T10:26:59.218Z,18.54
2022-09-18T10:29:25.795Z,18.60
2022-09-18T10:31:58.901Z,18.53
2022-09-18T10:34:38.862Z,18.49
2022-09-18T10:37:14.624Z,18.50
2022-09-18T10:42:54.343Z,18.17
2022-09-18T10:45:25.297Z,18.40
2022-09-18T10:48:06.301Z,18.37
2022-09-18T10:50:34.515Z,18.33
2022-09-18T10:53:33.941Z,17.98
2022-09-18T10:56:15.290Z,18.23
2022-09-18T10:58:41.787Z,17.95
2022-09-18T11:01:10.855Z,17.66
2022-09-18T11:03:58.033Z,17.31
2022-09-18T11:06:28.319Z,17.37
2022-09-18T11:09:00.004Z,17.23
2022-09-18T11:11:35.991Z,17.92
2022-09-18T11:14:06.825Z,17.62
2022-09-18T11:16:42.083Z,17.57
2022-09-18T11:19:12.067Z,17.74
2022-09-18T11:21:48.853Z,17.60
2022-09-18T11:24:31.105Z,17.74
2022-09-18T11:27:00.409Z,17.87
2022-09-18T11:29:39.076Z,17.92
2022-09-18T11:32:20.734Z,18.10
2022-09-18T11:35:01.496Z,18.08
2022-09-18T11:37:36.820Z,18.60
2022-09-18T11:40:16.361Z,18.26
2022-09-18T11:42:46.817Z,18.54
2022-09-18T11:45:34.289Z,18.41
2022-09-18T11:48:27.497Z,18.80
2022-09-18T11:51:04.508Z,18.67
2022-09-18T11:53:44.382Z,18.57
2022-09-18T11:56:46.529Z,18.40
2022-09-18T11:59:29.697Z,18.61
2022-09-18T12:02:05.591Z,18.39
2022-09-18T12:04:52.851Z,18.27
2022-09-18T12:07:41.877Z,18.94
2022-09-18T12:10:24.192Z,18.65
2022-09-18T12:13:18.053Z,19.00
2022-09-18T12:15:56.788Z,19.05
2022-09-18T12:18:36.751Z,18.99
2022-09-18T12:21:13.937Z,18.98
2022-09-18T12:23:41.039Z,18.93
2022-09-18T12:26:58.557Z,19.21
2022-09-18T12:30:01.692Z,19.24
2022-09-18T12:32:49.509Z,19.45
2022-09-18T12:35:25.342Z,19.64
2022-09-18T12:38:06.885Z,19.67
2022-09-18T12:40:52.399Z,19.81
2022-09-18T12:43:26.396Z,20.15
2022-09-18T12:45:58.609Z,20.28
2022-09-18T12:48:36.801Z,20.30
2022-09-18T12:51:26.179Z,20.48
2022-09-18T12:54:06.847Z,20.61
2022-09-18T12:57:01.357Z,20.91
2022-09-18T12:59:52.149Z,20.86
2022-09-18T13:02:51.387Z,21.06
2022-09-18T13:05:29.436Z,21.45
2022-09-18T13:08:21.416Z,21.40
2022-09-18T13:10:53.290Z,21.50
2022-09-18T13:13:39.794Z,21.85
2022-09-18T13:16:17.603Z,21.91
2022-09-18T13:19:13.115Z,21.91
2022-09-18T13:21:43.715Z,21.79
2022-09-18T13:24:22.305Z,22.14
2022-09-18T13:26:51.991Z,22.37
2022-09-18T13:29:46.124Z,22.58
2022-09-18T13:32:16.857Z,22.71
2022-09-18T13:35:14.042Z,22.74
2022-09-18T13:37:42.665Z,22.96
2022-09-18T13:40:34.108Z,23.07
2022-09-18T13:43:17.706Z,23.09
2022-09-18T13:45:44.182Z,23.29
2022-09-18T13:48:22.885Z,23.59
2022-09-18T13:50:57.483Z,23.80
2022-09-18T13:53:53.975Z,24.15
2022-09-18T13:56:20.484Z,24.53
2022-09-18T13:58:48.644Z,24.10
2022-09-18T14:01:41.073Z,24.68
2022-09-18T14:04:42.113Z,24.91
2022-09-18T14:07:17.344Z,25.27
2022-09-18T14:09:51.226Z,25.44
2022-09-18T14:12:19.579Z,25.74
2022-09-18T14:15:00.251Z,25.99
2022-09-18T14:17:28.212Z,26.24
2022-09-18T14:20:00.372Z,26.30
2022-09-18T14:22:30.808Z,26.78
2022-09-18T14:24:59.862Z,27.26
2022-09-18T14:27:55.777Z,27.48
2022-09-18T14:30:30.602Z,27.81
2022-09-18T14:33:14.799Z,28.08
2022-09-18T14:35:57.380Z,28.26
2022-09-18T14:38:38.275Z,28.41
2022-09-18T14:41:24.631Z,28.57
2022-09-18T14:43:55.476Z,28.91
2022-09-18T14:46:24.718Z,28.98
2022-09-18T14:48:52.095Z,29.26
2022-09-18T14:51:24.905Z,29.42
2022-09-18T14:53:54.806Z,29.56
2022-09-18T14:56:29.452Z,29.88
2022-09-18T14:58:59.968Z,29.56
2022-09-18T15:01:32.142Z,29.64
2022-09-18T15:04:03.812Z,29.42
2022-09-18T15:06:38.279Z,29.54
2022-09-18T15:09:10.431Z,29.62
2022-09-18T15:12:01.449Z,29.34
2022-09-18T15:14:41.531Z,29.40
2022-09-18T15:17:23.026Z,29.65
2022-09-18T15:20:14.677Z,29.47
2022-09-18T15:22:41.487Z,29.46
2022-09-18T15:25:23.375Z,29.38
2022-09-18T15:27:53.374Z,29.50
2022-09-18T15:30:22.841Z,29.49
2022-09-18T15:32:56.093Z,29.41
2022-09-18T15:35:36.517Z,29.35
2022-09-18T15:38:17.082Z,29.30
2022-09-18T15:40:45.762Z,29.38
2022-09-18T15:43:30.217Z,29.18
2022-09-18T15:46:26.153Z,29.44
2022-09-18T15:48:53.734Z,29.58
2022-09-18T15:51:35.243Z,29.58
2022-09-18T15:54:10.936Z,29.38
2022-09-18T15:56:48.042Z,29.02
2022-09-18T15:59:33.690Z,28.65
2022-09-18T16:02:04.280Z,28.73
2022-09-18T16:04:33.334Z,28.47
2022-09-18T16:07:05.007Z,27.61
2022-09-18T16:09:43.326Z,27.45
2022-09-18T16:12:29.637Z,27.63
2022-09-18T16:15:07.088Z,27.80
2022-09-18T16:17:37.093Z,27.42
2022-09-18T16:20:22.529Z,27.50
2022-09-18T16:22:56.718Z,27.69
2022-09-18T16:25:27.079Z,27.60
2022-09-18T16:27:56.179Z,27.14
2022-09-18T16:30:27.365Z,27.05
2022-09-18T16:33:18.297Z,26.94
2022-09-18T16:35:46.947Z,26.77
2022-09-18T16:38:13.624Z,26.84
2022-09-18T16:40:41.942Z,27.01
2022-09-18T16:43:08.445Z,26.84
2022-09-18T16:45:34.956Z,26.65
2022-09-18T16:48:01.740Z,26.11
2022-09-18T16:50:28.263Z,25.86
2022-09-18T16:52:57.510Z,25.67
2022-09-18T16:55:26.400Z,25.70
2022-09-18T16:57:53.321Z,25.77
2022-09-18T17:00:19.946Z,25.81
2022-09-18T17:02:46.559Z,25.96
2022-09-18T17:05:13.099Z,25.49
2022-09-18T17:07:39.571Z,25.20
2022-09-18T17:10:06.450Z,24.86
2022-09-18T17:12:33.070Z,24.37
2022-09-18T17:14:59.519Z,24.24
2022-09-18T17:17:26.001Z,24.11
2022-09-18T17:19:52.535Z,23.93
2022-09-18T17:22:22.450Z,23.51
2022-09-18T17:24:49.455Z,23.47
2022-09-18T17:27:15.973Z,23.24
2022-09-18T17:29:42.451Z,23.00
2022-09-18T17:32:09.139Z,22.86
2022-09-18T17:34:35.847Z,22.60
2022-09-18T17:37:02.417Z,22.39
2022-09-18T17:39:29.057Z,22.06
2022-09-18T17:41:55.553Z,21.94
2022-09-18T17:44:22.967Z,21.88
2022-09-18T17:46:50.095Z,21.83
2022-09-18T17:49:17.162Z,21.70
2022-09-18T17:51:43.633Z,21.59
2022-09-18T17:54:11.174Z,21.48
2022-09-18T17:56:38.011Z,21.26
2022-09-18T17:59:08.630Z,21.22
2022-09-18T18:01:37.855Z,21.17
2022-09-18T18:04:05.352Z,21.01
2022-09-18T18:06:32.762Z,20.93
2022-09-18T18:08:59.223Z,20.86
2022-09-18T18:11:25.991Z,20.62
2022-09-18T18:13:54.011Z,20.44
2022-09-18T18:16:23.923Z,20.46
2022-09-18T18:18:53.750Z,20.40
2022-09-18T18:21:21.292Z,20.32
2022-09-18T18:23:47.745Z,20.17
2022-09-18T18:26:14.350Z,20.18
2022-09-18T18:28:41.514Z,20.07
2022-09-18T18:31:10.877Z,20.10
2022-09-18T18:33:39.707Z,20.07
2022-09-18T18:36:14.059Z,20.05
2022-09-18T18:38:42.595Z,20.02
2022-09-18T18:41:10.667Z,19.97
2022-09-18T18:43:39.128Z,19.86
2022-09-18T18:46:06.096Z,19.76
2022-09-18T18:48:32.904Z,19.56
2022-09-18T18:51:04.728Z,19.34
2022-09-18T18:53:31.495Z,18.98
2022-09-18T18:56:02.494Z,18.76
2022-09-18T18:58:29.134Z,18.74
2022-09-18T19:00:56.031Z,18.22
2022-09-18T19:03:23.019Z,18.11
2022-09-18T19:08:38.064Z,18.17
2022-09-18T19:11:05.874Z,18.14
2022-09-18T19:16:18.296Z,18.45
2022-09-18T19:18:50.424Z,18.34
2022-09-18T19:23:57.531Z,17.95
2022-09-18T19:26:26.342Z,17.76
2022-09-18T19:28:56.274Z,17.48
2022-09-18T19:42:42.452Z,17.20
2022-09-18T19:45:11.210Z,17.23
2022-09-18T19:47:44.473Z,17.40
2022-09-18T19:50:21.393Z,17.47
2022-09-18T19:52:51.509Z,17.61
2022-09-18T19:55:23.143Z,17.53
2022-09-18T19:57:53.046Z,17.41
2022-09-18T20:00:20.580Z,17.45
2022-09-18T20:02:47.082Z,17.43
2022-09-18T20:05:13.614Z,16.82
2022-09-18T20:07:40.789Z,17.29
2022-09-18T20:10:10.907Z,17.28
2022-09-18T20:12:40.093Z,17.25
2022-09-18T20:15:09.195Z,17.29
2022-09-18T20:17:36.652Z,17.07
2022-09-18T20:20:08.608Z,17.39
2022-09-18T20:22:35.578Z,16.98
2022-09-18T20:25:02.224Z,16.74
2022-09-18T20:27:28.968Z,16.61
2022-09-18T20:29:55.514Z,16.55
2022-09-18T20:32:22.059Z,16.31
2022-09-18T20:34:48.649Z,16.30
2022-09-18T20:37:15.391Z,16.26
2022-09-18T20:39:42.364Z,16.18
2022-09-18T20:42:09.367Z,16.32
2022-09-18T20:44:36.723Z,16.28
2022-09-18T20:47:04.672Z,15.93
2022-09-18T20:49:31.446Z,16.07
2022-09-18T20:51:59.558Z,16.01
2022-09-18T20:54:27.761Z,15.88
2022-09-18T20:56:54.658Z,15.90
2022-09-18T20:59:21.576Z,16.11
2022-09-18T21:01:48.672Z,16.22
2022-09-18T21:04:18.403Z,16.32
2022-09-18T21:06:52.405Z,16.56
2022-09-18T21:17:59.663Z,16.65
2022-09-18T21:35:33.148Z,16.57
2022-09-18T21:38:00.262Z,16.68
2022-09-18T21:40:27.809Z,16.46
2022-09-18T21:42:55.097Z,16.61
2022-09-18T21:50:47.959Z,16.90
2022-09-18T21:53:15.094Z,16.67
2022-09-18T21:55:42.156Z,16.32
2022-09-18T21:58:09.037Z,16.52
2022-09-18T22:00:35.701Z,16.45
2022-09-18T22:03:02.274Z,16.55
2022-09-18T22:05:28.785Z,16.54
2022-09-18T22:07:56.995Z,16.46
2022-09-18T22:10:27.153Z,15.92
2022-09-18T22:12:57.851Z,16.07
2022-09-18T22:18:18.743Z,16.08
2022-09-18T22:20:46.090Z,15.98
2022-09-18T22:23:15.852Z,16.14
2022-09-18T22:25:43.872Z,16.04
2022-09-18T22:28:11.355Z,15.91
2022-09-18T22:39:06.889Z,16.10
2022-09-18T22:41:36.459Z,15.81
2022-09-18T22:44:04.044Z,15.60
2022-09-18T22:46:31.360Z,15.77
2022-09-18T22:49:01.114Z,15.38
2022-09-18T22:51:28.575Z,15.26
2022-09-18T22:54:13.555Z,15.49
2022-09-18T23:02:34.142Z,15.19
2022-09-18T23:05:01.673Z,15.17
2022-09-18T23:07:28.517Z,15.19
2022-09-18T23:09:55.206Z,15.12
2022-09-18T23:12:22.086Z,15.28
2022-09-18T23:17:24.031Z,15.18
2022-09-18T23:19:50.842Z,15.15
2022-09-18T23:31:16.797Z,15.31
2022-09-18T23:36:25.399Z,15.10
2022-09-18T23:38:57.747Z,15.18
2022-09-18T23:41:26.309Z,15.07
2022-09-18T23:43:54.830Z,15.04
2022-09-18T23:46:23.382Z,15.05
2022-09-18T23:48:50.388Z,14.94
2022-09-18T23:51:16.990Z,14.66
